sensor_id;sensor_type;location;lat;lon;timestamp;P1;durP1;ratioP1;P2;durP2;ratioP2
9880;SDS011;4979;51.014;6.678;2023-10-19T00:00:53;13.82;;;10.15;;
9880;SDS011;4979;51.014;6.678;2023-10-19T00:03:20;14.02;;;9.88;;
9880;SDS011;4979;51.014;6.678;2023-10-19T00:05:48;12.70;;;9.93;;
9880;SDS011;4979;51.014;6.678;2023-10-19T00:08:14;12.70;;;10.15;;
9880;SDS011;4979;51.014;6.678;2023-10-19T00:10:44;11.93;;;10.07;;
9880;SDS011;4979;51.014;6.678;2023-10-19T00:13:15;12.32;;;9.95;;
9880;SDS011;4979;51.014;6.678;2023-10-19T00:15:44;13.32;;;10.57;;
9880;SDS011;4979;51.014;6.678;2023-10-19T00:18:16;14.57;;;10.38;;
9880;SDS011;4979;51.014;6.678;2023-10-19T00:20:43;12.57;;;10.23;;
9880;SDS011;4979;51.014;6.678;2023-10-19T00:23:12;14.57;;;10.50;;
9880;SDS011;4979;51.014;6.678;2023-10-19T00:25:41;11.80;;;10.52;;
9880;SDS011;4979;51.014;6.678;2023-10-19T00:28:07;13.05;;;10.70;;
9880;SDS011;4979;51.014;6.678;2023-10-19T00:30:33;15.75;;;11.95;;
9880;SDS011;4979;51.014;6.678;2023-10-19T00:33:02;14.30;;;10.77;;
9880;SDS011;4979;51.014;6.678;2023-10-19T00:35:41;15.45;;;11.40;;
9880;SDS011;4979;51.014;6.678;2023-10-19T00:38:22;14.23;;;11.82;;
9880;SDS011;4979;51.014;6.678;2023-10-19T00:40:51;15.43;;;11.95;;
9880;SDS011;4979;51.014;6.678;2023-10-19T00:43:35;17.23;;;12.75;;
9880;SDS011;4979;51.014;6.678;2023-10-19T00:46:15;16.50;;;12.70;;
9880;SDS011;4979;51.014;6.678;2023-10-19T00:51:13;16.48;;;12.15;;
9880;SDS011;4979;51.014;6.678;2023-10-19T00:53:56;15.05;;;13.05;;
9880;SDS011;4979;51.014;6.678;2023-10-19T00:56:28;15.07;;;13.30;;
9880;SDS011;4979;51.014;6.678;2023-10-19T00:58:57;16.98;;;12.98;;
9880;SDS011;4979;51.014;6.678;2023-10-19T01:01:42;15.40;;;13.05;;
9880;SDS011;4979;51.014;6.678;2023-10-19T01:04:10;19.35;;;13.13;;
9880;SDS011;4979;51.014;6.678;2023-10-19T01:06:42;19.50;;;13.13;;
9880;SDS011;4979;51.014;6.678;2023-10-19T01:09:09;14.98;;;13.15;;
9880;SDS011;4979;51.014;6.678;2023-10-19T01:11:39;15.75;;;13.50;;
9880;SDS011;4979;51.014;6.678;2023-10-19T01:14:20;21.45;;;14.07;;
9880;SDS011;4979;51.014;6.678;2023-10-19T01:16:47;20.67;;;14.10;;
9880;SDS011;4979;51.014;6.678;2023-10-19T01:19:14;18.85;;;14.95;;
9880;SDS011;4979;51.014;6.678;2023-10-19T01:21:43;17.67;;;14.13;;
9880;SDS011;4979;51.014;6.678;2023-10-19T01:24:17;20.23;;;14.70;;
9880;SDS011;4979;51.014;6.678;2023-10-19T01:26:46;20.83;;;14.70;;
9880;SDS011;4979;51.014;6.678;2023-10-19T01:29:12;15.68;;;13.95;;
9880;SDS011;4979;51.014;6.678;2023-10-19T01:31:42;18.80;;;13.75;;
9880;SDS011;4979;51.014;6.678;2023-10-19T01:34:33;17.30;;;14.32;;
9880;SDS011;4979;51.014;6.678;2023-10-19T01:36:59;22.83;;;14.80;;
9880;SDS011;4979;51.014;6.678;2023-10-19T01:39:29;18.38;;;14.57;;
9880;SDS011;4979;51.014;6.678;2023-10-19T01:42:04;19.58;;;14.40;;
9880;SDS011;4979;51.014;6.678;2023-10-19T01:44:30;18.90;;;13.68;;
9880;SDS011;4979;51.014;6.678;2023-10-19T01:46:56;18.48;;;13.32;;
9880;SDS011;4979;51.014;6.678;2023-10-19T01:49:21;17.42;;;14.27;;
9880;SDS011;4979;51.014;6.678;2023-10-19T01:51:54;18.73;;;14.07;;
9880;SDS011;4979;51.014;6.678;2023-10-19T01:54:20;19.30;;;13.30;;
9880;SDS011;4979;51.014;6.678;2023-10-19T01:56:51;18.40;;;14.68;;
9880;SDS011;4979;51.014;6.678;2023-10-19T01:59:22;16.48;;;14.02;;
9880;SDS011;4979;51.014;6.678;2023-10-19T02:01:48;17.77;;;14.23;;
9880;SDS011;4979;51.014;6.678;2023-10-19T02:04:14;19.95;;;14.80;;
9880;SDS011;4979;51.014;6.678;2023-10-19T02:06:40;18.10;;;14.30;;
9880;SDS011;4979;51.014;6.678;2023-10-19T02:09:12;19.40;;;14.65;;
9880;SDS011;4979;51.014;6.678;2023-10-19T02:11:52;17.90;;;14.38;;
9880;SDS011;4979;51.014;6.678;2023-10-19T02:14:21;18.33;;;14.70;;
9880;SDS011;4979;51.014;6.678;2023-10-19T02:16:47;19.90;;;15.80;;
9880;SDS011;4979;51.014;6.678;2023-10-19T02:19:17;20.13;;;15.82;;
9880;SDS011;4979;51.014;6.678;2023-10-19T02:21:51;19.10;;;14.68;;
9880;SDS011;4979;51.014;6.678;2023-10-19T02:24:24;21.83;;;14.50;;
9880;SDS011;4979;51.014;6.678;2023-10-19T02:26:51;21.10;;;14.90;;
9880;SDS011;4979;51.014;6.678;2023-10-19T02:29:20;21.27;;;15.68;;
9880;SDS011;4979;51.014;6.678;2023-10-19T02:31:47;20.55;;;14.27;;
9880;SDS011;4979;51.014;6.678;2023-10-19T02:34:13;21.00;;;14.88;;
9880;SDS011;4979;51.014;6.678;2023-10-19T02:36:43;19.42;;;14.82;;
9880;SDS011;4979;51.014;6.678;2023-10-19T02:39:11;19.70;;;16.58;;
9880;SDS011;4979;51.014;6.678;2023-10-19T02:41:42;20.67;;;16.00;;
9880;SDS011;4979;51.014;6.678;2023-10-19T02:44:14;21.40;;;15.38;;
9880;SDS011;4979;51.014;6.678;2023-10-19T02:46:46;21.45;;;15.77;;
9880;SDS011;4979;51.014;6.678;2023-10-19T02:49:23;18.83;;;14.75;;
9880;SDS011;4979;51.014;6.678;2023-10-19T02:51:50;19.15;;;15.30;;
9880;SDS011;4979;51.014;6.678;2023-10-19T02:54:18;19.33;;;15.00;;
9880;SDS011;4979;51.014;6.678;2023-10-19T02:56:45;21.20;;;16.50;;
9880;SDS011;4979;51.014;6.678;2023-10-19T02:59:14;17.95;;;15.38;;
9880;SDS011;4979;51.014;6.678;2023-10-19T03:01:41;21.45;;;15.55;;
9880;SDS011;4979;51.014;6.678;2023-10-19T03:04:10;18.52;;;14.85;;
9880;SDS011;4979;51.014;6.678;2023-10-19T03:06:40;21.13;;;15.57;;
9880;SDS011;4979;51.014;6.678;2023-10-19T03:09:06;21.77;;;16.58;;
9880;SDS011;4979;51.014;6.678;2023-10-19T03:11:53;22.73;;;16.88;;
9880;SDS011;4979;51.014;6.678;2023-10-19T03:14:21;23.20;;;16.88;;
9880;SDS011;4979;51.014;6.678;2023-10-19T03:16:50;19.40;;;15.43;;
9880;SDS011;4979;51.014;6.678;2023-10-19T03:19:16;21.85;;;17.73;;
9880;SDS011;4979;51.014;6.678;2023-10-19T03:21:42;20.38;;;16.55;;
9880;SDS011;4979;51.014;6.678;2023-10-19T03:24:10;21.92;;;16.65;;
9880;SDS011;4979;51.014;6.678;2023-10-19T03:26:48;24.45;;;16.30;;
9880;SDS011;4979;51.014;6.678;2023-10-19T03:29:15;20.65;;;16.35;;
9880;SDS011;4979;51.014;6.678;2023-10-19T03:31:47;19.85;;;15.48;;
9880;SDS011;4979;51.014;6.678;2023-10-19T03:34:13;20.23;;;15.02;;
9880;SDS011;4979;51.014;6.678;2023-10-19T03:36:41;20.45;;;16.15;;
9880;SDS011;4979;51.014;6.678;2023-10-19T03:39:07;19.63;;;15.60;;
9880;SDS011;4979;51.014;6.678;2023-10-19T03:41:43;19.23;;;15.20;;
9880;SDS011;4979;51.014;6.678;2023-10-19T03:44:10;18.33;;;14.15;;
9880;SDS011;4979;51.014;6.678;2023-10-19T03:46:49;18.60;;;14.82;;
9880;SDS011;4979;51.014;6.678;2023-10-19T03:49:20;20.52;;;15.02;;
9880;SDS011;4979;51.014;6.678;2023-10-19T03:51:47;22.08;;;14.70;;
9880;SDS011;4979;51.014;6.678;2023-10-19T03:54:45;18.20;;;14.18;;
9880;SDS011;4979;51.014;6.678;2023-10-19T03:57:12;18.88;;;15.20;;
9880;SDS011;4979;51.014;6.678;2023-10-19T03:59:44;18.00;;;14.88;;
9880;SDS011;4979;51.014;6.678;2023-10-19T04:02:11;22.42;;;14.52;;
9880;SDS011;4979;51.014;6.678;2023-10-19T04:04:46;18.38;;;15.48;;
9880;SDS011;4979;51.014;6.678;2023-10-19T04:07:15;18.13;;;15.77;;
9880;SDS011;4979;51.014;6.678;2023-10-19T04:09:51;20.30;;;15.50;;
9880;SDS011;4979;51.014;6.678;2023-10-19T04:12:34;21.40;;;16.50;;
9880;SDS011;4979;51.014;6.678;2023-10-19T04:15:04;23.58;;;17.17;;
9880;SDS011;4979;51.014;6.678;2023-10-19T04:17:37;25.90;;;18.73;;
9880;SDS011;4979;51.014;6.678;2023-10-19T04:20:07;22.40;;;16.13;;
9880;SDS011;4979;51.014;6.678;2023-10-19T04:22:43;21.23;;;15.95;;
9880;SDS011;4979;51.014;6.678;2023-10-19T04:25:13;23.23;;;15.75;;
9880;SDS011;4979;51.014;6.678;2023-10-19T04:27:41;22.80;;;15.70;;
9880;SDS011;4979;51.014;6.678;2023-10-19T04:30:08;22.80;;;15.80;;
9880;SDS011;4979;51.014;6.678;2023-10-19T04:32:41;21.17;;;14.98;;
9880;SDS011;4979;51.014;6.678;2023-10-19T04:35:10;22.35;;;15.82;;
9880;SDS011;4979;51.014;6.678;2023-10-19T04:37:38;22.20;;;15.60;;
9880;SDS011;4979;51.014;6.678;2023-10-19T04:40:07;22.17;;;15.48;;
9880;SDS011;4979;51.014;6.678;2023-10-19T04:42:34;18.48;;;14.85;;
9880;SDS011;4979;51.014;6.678;2023-10-19T04:45:01;22.48;;;14.43;;
9880;SDS011;4979;51.014;6.678;2023-10-19T04:47:27;19.83;;;14.77;;
9880;SDS011;4979;51.014;6.678;2023-10-19T04:49:53;23.02;;;14.75;;
9880;SDS011;4979;51.014;6.678;2023-10-19T04:52:18;18.85;;;14.90;;
9880;SDS011;4979;51.014;6.678;2023-10-19T04:54:44;22.08;;;14.90;;
9880;SDS011;4979;51.014;6.678;2023-10-19T04:57:09;20.77;;;14.32;;
9880;SDS011;4979;51.014;6.678;2023-10-19T04:59:36;18.02;;;15.00;;
9880;SDS011;4979;51.014;6.678;2023-10-19T05:02:01;17.60;;;14.68;;
9880;SDS011;4979;51.014;6.678;2023-10-19T05:04:27;17.73;;;14.38;;
9880;SDS011;4979;51.014;6.678;2023-10-19T05:06:53;20.17;;;14.30;;
9880;SDS011;4979;51.014;6.678;2023-10-19T05:09:19;20.20;;;14.05;;
9880;SDS011;4979;51.014;6.678;2023-10-19T05:11:44;18.02;;;14.13;;
9880;SDS011;4979;51.014;6.678;2023-10-19T05:14:11;18.35;;;14.55;;
9880;SDS011;4979;51.014;6.678;2023-10-19T05:16:39;15.15;;;12.98;;
9880;SDS011;4979;51.014;6.678;2023-10-19T05:19:04;17.95;;;14.55;;
9880;SDS011;4979;51.014;6.678;2023-10-19T05:21:30;19.48;;;14.77;;
9880;SDS011;4979;51.014;6.678;2023-10-19T05:23:56;20.67;;;13.07;;
9880;SDS011;4979;51.014;6.678;2023-10-19T05:26:21;18.55;;;13.45;;
9880;SDS011;4979;51.014;6.678;2023-10-19T05:28:47;17.33;;;13.85;;
9880;SDS011;4979;51.014;6.678;2023-10-19T05:31:13;15.50;;;12.70;;
9880;SDS011;4979;51.014;6.678;2023-10-19T05:33:40;18.90;;;13.05;;
9880;SDS011;4979;51.014;6.678;2023-10-19T05:36:05;18.40;;;12.95;;
9880;SDS011;4979;51.014;6.678;2023-10-19T05:38:31;19.08;;;13.15;;
9880;SDS011;4979;51.014;6.678;2023-10-19T05:40:57;17.35;;;11.80;;
9880;SDS011;4979;51.014;6.678;2023-10-19T05:43:24;18.42;;;11.98;;
9880;SDS011;4979;51.014;6.678;2023-10-19T05:45:50;14.82;;;11.23;;
9880;SDS011;4979;51.014;6.678;2023-10-19T05:48:16;17.30;;;11.95;;
9880;SDS011;4979;51.014;6.678;2023-10-19T05:50:42;15.77;;;11.23;;
9880;SDS011;4979;51.014;6.678;2023-10-19T05:53:07;16.95;;;10.82;;
9880;SDS011;4979;51.014;6.678;2023-10-19T05:55:34;15.48;;;10.60;;
9880;SDS011;4979;51.014;6.678;2023-10-19T05:58:01;16.17;;;10.75;;
9880;SDS011;4979;51.014;6.678;2023-10-19T06:00:29;16.55;;;11.55;;
9880;SDS011;4979;51.014;6.678;2023-10-19T06:02:55;14.65;;;10.88;;
9880;SDS011;4979;51.014;6.678;2023-10-19T06:05:22;14.50;;;11.15;;
9880;SDS011;4979;51.014;6.678;2023-10-19T06:07:49;20.80;;;12.02;;
9880;SDS011;4979;51.014;6.678;2023-10-19T06:10:16;16.08;;;11.50;;
9880;SDS011;4979;51.014;6.678;2023-10-19T06:12:48;15.73;;;10.00;;
9880;SDS011;4979;51.014;6.678;2023-10-19T06:15:15;13.38;;;10.20;;
9880;SDS011;4979;51.014;6.678;2023-10-19T06:17:43;11.05;;;8.27;;
9880;SDS011;4979;51.014;6.678;2023-10-19T06:20:11;12.93;;;9.27;;
9880;SDS011;4979;51.014;6.678;2023-10-19T06:22:50;11.55;;;8.75;;
9880;SDS011;4979;51.014;6.678;2023-10-19T06:25:17;10.57;;;8.07;;
9880;SDS011;4979;51.014;6.678;2023-10-19T06:27:43;12.20;;;9.82;;
9880;SDS011;4979;51.014;6.678;2023-10-19T06:30:09;15.05;;;10.00;;
9880;SDS011;4979;51.014;6.678;2023-10-19T06:32:36;26.48;;;17.13;;
9880;SDS011;4979;51.014;6.678;2023-10-19T06:35:02;18.92;;;13.00;;
9880;SDS011;4979;51.014;6.678;2023-10-19T06:37:28;13.88;;;10.65;;
9880;SDS011;4979;51.014;6.678;2023-10-19T06:39:54;11.75;;;9.68;;
9880;SDS011;4979;51.014;6.678;2023-10-19T06:42:19;12.80;;;9.23;;
9880;SDS011;4979;51.014;6.678;2023-10-19T06:44:46;16.60;;;11.93;;
9880;SDS011;4979;51.014;6.678;2023-10-19T06:47:11;22.38;;;13.38;;
9880;SDS011;4979;51.014;6.678;2023-10-19T06:49:38;18.00;;;13.27;;
9880;SDS011;4979;51.014;6.678;2023-10-19T06:52:04;17.00;;;11.73;;
9880;SDS011;4979;51.014;6.678;2023-10-19T06:54:30;18.52;;;10.85;;
9880;SDS011;4979;51.014;6.678;2023-10-19T06:56:57;14.02;;;11.07;;
9880;SDS011;4979;51.014;6.678;2023-10-19T06:59:22;19.73;;;11.15;;
9880;SDS011;4979;51.014;6.678;2023-10-19T07:01:49;13.57;;;9.02;;
9880;SDS011;4979;51.014;6.678;2023-10-19T07:04:15;17.90;;;12.27;;
9880;SDS011;4979;51.014;6.678;2023-10-19T07:06:40;20.33;;;11.10;;
9880;SDS011;4979;51.014;6.678;2023-10-19T07:09:06;14.75;;;10.13;;
9880;SDS011;4979;51.014;6.678;2023-10-19T07:11:34;13.73;;;9.32;;
9880;SDS011;4979;51.014;6.678;2023-10-19T07:14:01;13.00;;;8.15;;
9880;SDS011;4979;51.014;6.678;2023-10-19T07:16:26;13.18;;;9.13;;
9880;SDS011;4979;51.014;6.678;2023-10-19T07:18:52;10.70;;;7.45;;
9880;SDS011;4979;51.014;6.678;2023-10-19T07:21:18;10.18;;;7.45;;
9880;SDS011;4979;51.014;6.678;2023-10-19T07:23:44;6.65;;;5.35;;
9880;SDS011;4979;51.014;6.678;2023-10-19T07:26:10;12.52;;;6.47;;
9880;SDS011;4979;51.014;6.678;2023-10-19T07:28:39;14.07;;;6.78;;
9880;SDS011;4979;51.014;6.678;2023-10-19T07:31:05;11.75;;;6.93;;
9880;SDS011;4979;51.014;6.678;2023-10-19T07:33:37;8.27;;;5.55;;
9880;SDS011;4979;51.014;6.678;2023-10-19T07:36:11;68.85;;;28.65;;
9880;SDS011;4979;51.014;6.678;2023-10-19T07:38:39;20.85;;;7.47;;
9880;SDS011;4979;51.014;6.678;2023-10-19T07:41:05;12.57;;;6.45;;
9880;SDS011;4979;51.014;6.678;2023-10-19T07:43:30;14.40;;;6.53;;
9880;SDS011;4979;51.014;6.678;2023-10-19T07:45:56;12.25;;;6.63;;
9880;SDS011;4979;51.014;6.678;2023-10-19T07:48:21;16.15;;;7.78;;
9880;SDS011;4979;51.014;6.678;2023-10-19T07:50:47;20.88;;;10.32;;
9880;SDS011;4979;51.014;6.678;2023-10-19T07:53:13;15.20;;;9.38;;
9880;SDS011;4979;51.014;6.678;2023-10-19T07:55:38;12.52;;;8.30;;
9880;SDS011;4979;51.014;6.678;2023-10-19T07:58:04;12.02;;;7.55;;
9880;SDS011;4979;51.014;6.678;2023-10-19T08:00:32;10.43;;;7.32;;
9880;SDS011;4979;51.014;6.678;2023-10-19T08:03:00;16.65;;;7.78;;
9880;SDS011;4979;51.014;6.678;2023-10-19T08:05:27;7.65;;;5.28;;
9880;SDS011;4979;51.014;6.678;2023-10-19T08:07:53;20.67;;;5.82;;
9880;SDS011;4979;51.014;6.678;2023-10-19T08:10:19;30.83;;;13.00;;
9880;SDS011;4979;51.014;6.678;2023-10-19T08:12:46;17.45;;;8.80;;
9880;SDS011;4979;51.014;6.678;2023-10-19T08:15:13;28.33;;;11.27;;
9880;SDS011;4979;51.014;6.678;2023-10-19T08:17:41;7.53;;;5.18;;
9880;SDS011;4979;51.014;6.678;2023-10-19T08:20:09;6.95;;;4.75;;
9880;SDS011;4979;51.014;6.678;2023-10-19T08:22:41;24.45;;;11.27;;
9880;SDS011;4979;51.014;6.678;2023-10-19T08:25:08;8.52;;;5.28;;
9880;SDS011;4979;51.014;6.678;2023-10-19T08:27:38;10.43;;;5.22;;
9880;SDS011;4979;51.014;6.678;2023-10-19T08:30:05;27.10;;;12.75;;
9880;SDS011;4979;51.014;6.678;2023-10-19T08:32:33;16.25;;;7.28;;
9880;SDS011;4979;51.014;6.678;2023-10-19T08:35:00;12.50;;;7.93;;
9880;SDS011;4979;51.014;6.678;2023-10-19T08:37:26;16.08;;;8.77;;
9880;SDS011;4979;51.014;6.678;2023-10-19T08:39:52;14.48;;;8.23;;
9880;SDS011;4979;51.014;6.678;2023-10-19T08:42:18;21.95;;;11.40;;
9880;SDS011;4979;51.014;6.678;2023-10-19T08:44:45;20.02;;;9.55;;
9880;SDS011;4979;51.014;6.678;2023-10-19T08:47:11;15.77;;;8.68;;
9880;SDS011;4979;51.014;6.678;2023-10-19T08:49:37;19.92;;;9.70;;
9880;SDS011;4979;51.014;6.678;2023-10-19T08:52:03;14.02;;;5.40;;
9880;SDS011;4979;51.014;6.678;2023-10-19T08:54:30;13.73;;;7.10;;
9880;SDS011;4979;51.014;6.678;2023-10-19T08:56:55;16.00;;;9.32;;
9880;SDS011;4979;51.014;6.678;2023-10-19T08:59:21;20.05;;;10.85;;
9880;SDS011;4979;51.014;6.678;2023-10-19T09:01:47;18.88;;;9.18;;
9880;SDS011;4979;51.014;6.678;2023-10-19T09:04:14;19.73;;;9.90;;
9880;SDS011;4979;51.014;6.678;2023-10-19T09:06:41;21.25;;;10.63;;
9880;SDS011;4979;51.014;6.678;2023-10-19T09:09:11;12.55;;;5.35;;
9880;SDS011;4979;51.014;6.678;2023-10-19T09:11:44;14.77;;;5.35;;
9880;SDS011;4979;51.014;6.678;2023-10-19T09:14:11;22.30;;;7.32;;
9880;SDS011;4979;51.014;6.678;2023-10-19T09:16:54;11.00;;;4.88;;
9880;SDS011;4979;51.014;6.678;2023-10-19T09:19:35;8.30;;;4.38;;
9880;SDS011;4979;51.014;6.678;2023-10-19T09:22:02;15.00;;;6.18;;
9880;SDS011;4979;51.014;6.678;2023-10-19T09:24:33;11.38;;;4.30;;
9880;SDS011;4979;51.014;6.678;2023-10-19T09:26:59;7.88;;;3.20;;
9880;SDS011;4979;51.014;6.678;2023-10-19T09:29:26;11.18;;;4.28;;
9880;SDS011;4979;51.014;6.678;2023-10-19T09:31:52;13.75;;;5.63;;
9880;SDS011;4979;51.014;6.678;2023-10-19T09:34:21;11.10;;;5.53;;
9880;SDS011;4979;51.014;6.678;2023-10-19T09:36:56;10.57;;;4.45;;
9880;SDS011;4979;51.014;6.678;2023-10-19T09:39:22;11.10;;;3.88;;
9880;SDS011;4979;51.014;6.678;2023-10-19T09:41:49;11.02;;;4.70;;
9880;SDS011;4979;51.014;6.678;2023-10-19T09:44:17;12.25;;;4.88;;
9880;SDS011;4979;51.014;6.678;2023-10-19T09:46:48;17.38;;;6.78;;
9880;SDS011;4979;51.014;6.678;2023-10-19T09:49:16;8.43;;;4.50;;
9880;SDS011;4979;51.014;6.678;2023-10-19T09:51:43;10.90;;;3.28;;
9880;SDS011;4979;51.014;6.678;2023-10-19T09:54:25;11.02;;;3.58;;
9880;SDS011;4979;51.014;6.678;2023-10-19T09:57:03;8.77;;;2.97;;
9880;SDS011;4979;51.014;6.678;2023-10-19T09:59:41;11.32;;;4.75;;
9880;SDS011;4979;51.014;6.678;2023-10-19T10:02:10;18.70;;;9.25;;
9880;SDS011;4979;51.014;6.678;2023-10-19T10:04:38;18.52;;;9.57;;
9880;SDS011;4979;51.014;6.678;2023-10-19T10:07:05;88.72;;;43.83;;
9880;SDS011;4979;51.014;6.678;2023-10-19T10:09:34;45.03;;;25.20;;
9880;SDS011;4979;51.014;6.678;2023-10-19T10:12:18;48.85;;;26.52;;
9880;SDS011;4979;51.014;6.678;2023-10-19T10:17:32;13.38;;;7.78;;
9880;SDS011;4979;51.014;6.678;2023-10-19T10:22:40;11.80;;;5.13;;
9880;SDS011;4979;51.014;6.678;2023-10-19T10:25:29;11.60;;;3.88;;
9880;SDS011;4979;51.014;6.678;2023-10-19T10:27:55;11.32;;;4.18;;
9880;SDS011;4979;51.014;6.678;2023-10-19T10:30:21;10.55;;;3.70;;
9880;SDS011;4979;51.014;6.678;2023-10-19T10:32:48;16.08;;;4.20;;
9880;SDS011;4979;51.014;6.678;2023-10-19T10:38:06;6.47;;;3.05;;
9880;SDS011;4979;51.014;6.678;2023-10-19T10:40:46;7.07;;;2.88;;
9880;SDS011;4979;51.014;6.678;2023-10-19T10:43:13;6.88;;;3.00;;
9880;SDS011;4979;51.014;6.678;2023-10-19T10:45:40;9.18;;;2.78;;
9880;SDS011;4979;51.014;6.678;2023-10-19T10:48:12;9.95;;;3.17;;
9880;SDS011;4979;51.014;6.678;2023-10-19T10:50:42;7.70;;;3.10;;
9880;SDS011;4979;51.014;6.678;2023-10-19T10:53:10;7.03;;;3.05;;
9880;SDS011;4979;51.014;6.678;2023-10-19T10:55:36;7.07;;;3.38;;
9880;SDS011;4979;51.014;6.678;2023-10-19T10:58:03;8.25;;;3.22;;
9880;SDS011;4979;51.014;6.678;2023-10-19T11:00:28;10.07;;;3.15;;
9880;SDS011;4979;51.014;6.678;2023-10-19T11:03:02;11.52;;;3.78;;
9880;SDS011;4979;51.014;6.678;2023-10-19T11:05:30;10.02;;;3.28;;
9880;SDS011;4979;51.014;6.678;2023-10-19T11:08:11;11.73;;;3.30;;
9880;SDS011;4979;51.014;6.678;2023-10-19T11:10:47;10.30;;;4.00;;
9880;SDS011;4979;51.014;6.678;2023-10-19T11:13:14;10.63;;;5.65;;
9880;SDS011;4979;51.014;6.678;2023-10-19T11:15:53;22.95;;;10.65;;
9880;SDS011;4979;51.014;6.678;2023-10-19T11:18:27;11.50;;;5.22;;
9880;SDS011;4979;51.014;6.678;2023-10-19T11:21:07;10.48;;;3.40;;
9880;SDS011;4979;51.014;6.678;2023-10-19T11:23:45;15.18;;;5.60;;
9880;SDS011;4979;51.014;6.678;2023-10-19T11:26:12;13.70;;;5.28;;
9880;SDS011;4979;51.014;6.678;2023-10-19T11:28:39;14.32;;;4.95;;
9880;SDS011;4979;51.014;6.678;2023-10-19T11:31:20;11.10;;;5.20;;
9880;SDS011;4979;51.014;6.678;2023-10-19T11:33:50;10.55;;;3.63;;
9880;SDS011;4979;51.014;6.678;2023-10-19T11:36:18;9.70;;;3.28;;
9880;SDS011;4979;51.014;6.678;2023-10-19T11:38:45;10.95;;;5.28;;
9880;SDS011;4979;51.014;6.678;2023-10-19T11:41:12;7.63;;;3.38;;
9880;SDS011;4979;51.014;6.678;2023-10-19T11:43:40;12.45;;;4.18;;
9880;SDS011;4979;51.014;6.678;2023-10-19T11:46:08;12.05;;;3.15;;
9880;SDS011;4979;51.014;6.678;2023-10-19T11:48:35;13.68;;;4.82;;
9880;SDS011;4979;51.014;6.678;2023-10-19T11:51:02;11.25;;;3.72;;
9880;SDS011;4979;51.014;6.678;2023-10-19T11:53:30;9.80;;;3.15;;
9880;SDS011;4979;51.014;6.678;2023-10-19T11:55:58;17.67;;;3.38;;
9880;SDS011;4979;51.014;6.678;2023-10-19T11:58:29;11.15;;;4.03;;
9880;SDS011;4979;51.014;6.678;2023-10-19T12:00:55;8.70;;;3.67;;
9880;SDS011;4979;51.014;6.678;2023-10-19T12:03:21;11.13;;;3.10;;
9880;SDS011;4979;51.014;6.678;2023-10-19T12:05:46;13.43;;;5.30;;
9880;SDS011;4979;51.014;6.678;2023-10-19T12:08:12;16.73;;;4.88;;
9880;SDS011;4979;51.014;6.678;2023-10-19T12:10:37;9.85;;;2.83;;
9880;SDS011;4979;51.014;6.678;2023-10-19T12:13:06;10.48;;;3.40;;
9880;SDS011;4979;51.014;6.678;2023-10-19T12:15:33;12.18;;;3.53;;
9880;SDS011;4979;51.014;6.678;2023-10-19T12:17:59;13.98;;;4.80;;
9880;SDS011;4979;51.014;6.678;2023-10-19T12:20:24;10.75;;;3.63;;
9880;SDS011;4979;51.014;6.678;2023-10-19T12:22:51;8.48;;;3.05;;
9880;SDS011;4979;51.014;6.678;2023-10-19T12:25:19;12.48;;;2.97;;
9880;SDS011;4979;51.014;6.678;2023-10-19T12:27:46;15.15;;;3.90;;
9880;SDS011;4979;51.014;6.678;2023-10-19T12:30:12;8.23;;;3.03;;
9880;SDS011;4979;51.014;6.678;2023-10-19T12:32:50;16.35;;;5.05;;
9880;SDS011;4979;51.014;6.678;2023-10-19T12:35:16;8.35;;;2.88;;
9880;SDS011;4979;51.014;6.678;2023-10-19T12:37:45;15.38;;;4.20;;
9880;SDS011;4979;51.014;6.678;2023-10-19T12:40:17;15.02;;;5.95;;
9880;SDS011;4979;51.014;6.678;2023-10-19T12:42:54;14.18;;;5.18;;
9880;SDS011;4979;51.014;6.678;2023-10-19T12:45:24;13.82;;;3.78;;
9880;SDS011;4979;51.014;6.678;2023-10-19T12:47:50;20.05;;;7.25;;
9880;SDS011;4979;51.014;6.678;2023-10-19T12:50:19;9.85;;;2.92;;
9880;SDS011;4979;51.014;6.678;2023-10-19T12:52:50;8.30;;;2.30;;
9880;SDS011;4979;51.014;6.678;2023-10-19T12:55:16;17.98;;;5.90;;
9880;SDS011;4979;51.014;6.678;2023-10-19T12:57:42;20.73;;;7.47;;
9880;SDS011;4979;51.014;6.678;2023-10-19T13:00:08;13.60;;;3.75;;
9880;SDS011;4979;51.014;6.678;2023-10-19T13:02:51;15.65;;;5.07;;
9880;SDS011;4979;51.014;6.678;2023-10-19T13:05:24;17.15;;;7.85;;
9880;SDS011;4979;51.014;6.678;2023-10-19T13:07:51;10.80;;;3.45;;
9880;SDS011;4979;51.014;6.678;2023-10-19T13:10:16;11.65;;;4.07;;
9880;SDS011;4979;51.014;6.678;2023-10-19T13:12:42;7.75;;;2.60;;
9880;SDS011;4979;51.014;6.678;2023-10-19T13:15:07;15.10;;;4.28;;
9880;SDS011;4979;51.014;6.678;2023-10-19T13:17:38;10.05;;;4.05;;
9880;SDS011;4979;51.014;6.678;2023-10-19T13:20:08;12.07;;;3.75;;
9880;SDS011;4979;51.014;6.678;2023-10-19T13:22:43;23.70;;;11.90;;
9880;SDS011;4979;51.014;6.678;2023-10-19T13:25:10;6.47;;;2.42;;
9880;SDS011;4979;51.014;6.678;2023-10-19T13:27:38;13.43;;;5.22;;
9880;SDS011;4979;51.014;6.678;2023-10-19T13:30:07;9.85;;;3.40;;
9880;SDS011;4979;51.014;6.678;2023-10-19T13:32:36;9.55;;;3.17;;
9880;SDS011;4979;51.014;6.678;2023-10-19T13:35:03;11.65;;;3.10;;
9880;SDS011;4979;51.014;6.678;2023-10-19T13:37:29;7.82;;;2.80;;
9880;SDS011;4979;51.014;6.678;2023-10-19T13:39:54;7.63;;;2.78;;
9880;SDS011;4979;51.014;6.678;2023-10-19T13:42:20;10.85;;;3.03;;
9880;SDS011;4979;51.014;6.678;2023-10-19T13:44:49;6.03;;;2.17;;
9880;SDS011;4979;51.014;6.678;2023-10-19T13:47:14;5.90;;;2.25;;
9880;SDS011;4979;51.014;6.678;2023-10-19T13:49:40;6.38;;;2.45;;
9880;SDS011;4979;51.014;6.678;2023-10-19T13:52:06;11.00;;;2.83;;
9880;SDS011;4979;51.014;6.678;2023-10-19T13:54:34;18.70;;;11.05;;
9880;SDS011;4979;51.014;6.678;2023-10-19T13:57:02;6.65;;;3.90;;
9880;SDS011;4979;51.014;6.678;2023-10-19T13:59:28;6.65;;;3.22;;
9880;SDS011;4979;51.014;6.678;2023-10-19T14:01:54;33.08;;;18.52;;
9880;SDS011;4979;51.014;6.678;2023-10-19T14:04:20;11.15;;;7.70;;
9880;SDS011;4979;51.014;6.678;2023-10-19T14:06:45;21.33;;;12.45;;
9880;SDS011;4979;51.014;6.678;2023-10-19T14:09:14;46.42;;;29.77;;
9880;SDS011;4979;51.014;6.678;2023-10-19T14:11:40;61.60;;;35.33;;
9880;SDS011;4979;51.014;6.678;2023-10-19T14:14:05;22.55;;;11.23;;
9880;SDS011;4979;51.014;6.678;2023-10-19T14:16:31;18.80;;;8.57;;
9880;SDS011;4979;51.014;6.678;2023-10-19T14:18:57;28.60;;;20.45;;
9880;SDS011;4979;51.014;6.678;2023-10-19T14:21:23;20.85;;;14.98;;
9880;SDS011;4979;51.014;6.678;2023-10-19T14:23:51;16.30;;;11.95;;
9880;SDS011;4979;51.014;6.678;2023-10-19T14:26:18;12.20;;;5.13;;
9880;SDS011;4979;51.014;6.678;2023-10-19T14:28:44;14.07;;;10.55;;
9880;SDS011;4979;51.014;6.678;2023-10-19T14:31:09;12.20;;;6.03;;
9880;SDS011;4979;51.014;6.678;2023-10-19T14:33:36;16.88;;;10.73;;
9880;SDS011;4979;51.014;6.678;2023-10-19T14:36:03;11.82;;;9.15;;
9880;SDS011;4979;51.014;6.678;2023-10-19T14:38:29;15.80;;;7.93;;
9880;SDS011;4979;51.014;6.678;2023-10-19T14:40:55;16.25;;;8.57;;
9880;SDS011;4979;51.014;6.678;2023-10-19T14:43:20;12.52;;;8.88;;
9880;SDS011;4979;51.014;6.678;2023-10-19T14:45:46;21.67;;;13.18;;
9880;SDS011;4979;51.014;6.678;2023-10-19T14:48:11;15.80;;;9.38;;
9880;SDS011;4979;51.014;6.678;2023-10-19T14:50:37;12.65;;;6.03;;
9880;SDS011;4979;51.014;6.678;2023-10-19T14:53:03;8.10;;;6.20;;
9880;SDS011;4979;51.014;6.678;2023-10-19T14:55:29;20.73;;;15.18;;
9880;SDS011;4979;51.014;6.678;2023-10-19T14:57:55;13.93;;;7.28;;
9880;SDS011;4979;51.014;6.678;2023-10-19T15:00:23;11.38;;;5.10;;
9880;SDS011;4979;51.014;6.678;2023-10-19T15:02:53;8.15;;;4.88;;
9880;SDS011;4979;51.014;6.678;2023-10-19T15:05:20;12.93;;;5.40;;
9880;SDS011;4979;51.014;6.678;2023-10-19T15:07:47;13.45;;;8.27;;
9880;SDS011;4979;51.014;6.678;2023-10-19T15:10:16;14.80;;;7.30;;
9880;SDS011;4979;51.014;6.678;2023-10-19T15:12:43;15.13;;;13.55;;
9880;SDS011;4979;51.014;6.678;2023-10-19T15:15:09;11.35;;;6.80;;